createdAt,value
2022-11-25T00:00:30.374Z,4.23
2022-11-25T00:10:34.749Z,4.27
2022-11-25T00:20:38.638Z,4.23
2022-11-25T00:30:43.028Z,4.23
2022-11-25T00:41:06.071Z,3.90
2022-11-25T00:51:10.433Z,3.43
2022-11-25T01:01:13.683Z,3.70
2022-11-25T01:11:20.346Z,3.70
2022-11-25T01:21:25.897Z,3.43
2022-11-25T01:31:33.532Z,3.73
2022-11-25T01:41:37.187Z,3.47
2022-11-25T01:51:44.379Z,3.80
2022-11-25T02:01:47.844Z,3.43
2022-11-25T02:11:53.384Z,3.07
2022-11-25T02:22:04.207Z,2.87
2022-11-25T02:32:08.979Z,3.10
2022-11-25T02:42:12.458Z,2.97
2022-11-25T02:52:16.878Z,2.80
2022-11-25T03:02:19.966Z,3.00
2022-11-25T03:12:24.376Z,2.63
2022-11-25T03:22:27.590Z,2.50
2022-11-25T03:32:32.039Z,2.77
2022-11-25T03:42:35.159Z,2.47
2022-11-25T03:52:40.180Z,2.33
2022-11-25T04:02:43.898Z,2.30
2022-11-25T04:12:48.386Z,2.10
2022-11-25T04:22:51.506Z,2.50
2022-11-25T04:32:56.046Z,2.40
2022-11-25T04:43:04.747Z,2.10
2022-11-25T04:53:11.982Z,1.90
2022-11-25T05:03:14.968Z,2.07
2022-11-25T05:13:19.342Z,2.30
2022-11-25T05:23:22.382Z,2.00
2022-11-25T05:33:26.805Z,2.00
2022-11-25T05:43:30.013Z,1.90
2022-11-25T05:53:34.659Z,2.37
2022-11-25T06:03:38.060Z,2.10
2022-11-25T06:13:44.009Z,2.37
2022-11-25T06:23:47.103Z,2.17
2022-11-25T06:33:53.185Z,2.07
2022-11-25T06:43:56.453Z,2.03
2022-11-25T06:54:00.906Z,2.70
2022-11-25T07:04:06.129Z,3.00
2022-11-25T07:14:14.184Z,2.40
2022-11-25T07:24:19.018Z,2.30
2022-11-25T07:34:23.489Z,2.03
2022-11-25T07:44:26.504Z,1.97
2022-11-25T07:54:31.128Z,2.03
2022-11-25T08:04:34.126Z,2.23
2022-11-25T08:14:38.625Z,2.30
2022-11-25T08:24:41.755Z,2.00
2022-11-25T08:34:46.170Z,2.00
2022-11-25T08:44:53.847Z,2.10
2022-11-25T08:54:58.269Z,2.10
2022-11-25T09:05:01.492Z,1.70
2022-11-25T09:15:06.798Z,2.10
2022-11-25T09:25:10.314Z,2.37
2022-11-25T09:35:14.701Z,1.83
2022-11-25T09:45:40.346Z,2.63
2022-11-25T09:55:48.363Z,2.93
2022-11-25T10:05:58.514Z,3.40
2022-11-25T10:16:06.419Z,2.60
2022-11-25T10:26:15.226Z,2.47
2022-11-25T10:36:22.337Z,2.27
2022-11-25T10:46:57.009Z,2.10
2022-11-25T10:56:59.244Z,2.57
2022-11-25T11:07:10.084Z,2.77
2022-11-25T11:17:36.708Z,2.50
2022-11-25T11:27:40.457Z,2.57
2022-11-25T11:37:46.763Z,3.00
2022-11-25T11:48:01.993Z,3.00
2022-11-25T11:58:20.940Z,2.60
2022-11-25T12:08:29.491Z,2.77
2022-11-25T12:18:45.319Z,2.63
2022-11-25T12:28:56.126Z,3.20
2022-11-25T12:39:04.473Z,2.70
2022-11-25T12:49:13.520Z,2.90
2022-11-25T12:59:46.281Z,2.60
2022-11-25T13:10:24.925Z,2.57
2022-11-25T13:20:54.257Z,2.67
2022-11-25T13:31:17.488Z,2.53
2022-11-25T13:41:35.094Z,2.53
2022-11-25T13:51:38.217Z,2.23
2022-11-25T14:01:53.532Z,2.00
2022-11-25T14:12:06.982Z,2.07
2022-11-25T14:22:31.019Z,2.23
2022-11-25T14:32:39.084Z,2.50
2022-11-25T14:42:47.500Z,3.80
2022-11-25T14:52:51.507Z,3.00
2022-11-25T15:02:57.977Z,2.73
2022-11-25T15:13:05.006Z,3.00
2022-11-25T15:23:16.847Z,2.80
2022-11-25T15:33:19.974Z,3.57
2022-11-25T15:43:26.717Z,2.80
2022-11-25T15:53:33.362Z,3.57
2022-11-25T16:03:38.087Z,3.53
2022-11-25T16:13:41.264Z,3.13
2022-11-25T16:23:49.460Z,3.33
2022-11-25T16:33:54.812Z,2.80
2022-11-25T16:44:02.573Z,3.20
2022-11-25T16:54:07.866Z,3.30
2022-11-25T17:04:13.359Z,4.83
2022-11-25T17:14:24.502Z,4.20
2022-11-25T17:24:29.239Z,4.07
2022-11-25T17:34:37.817Z,4.23
2022-11-25T17:44:46.688Z,5.07
2022-11-25T17:54:53.047Z,5.67
2022-11-25T18:04:57.498Z,9.50
2022-11-25T18:15:07.549Z,7.70
2022-11-25T18:25:14.873Z,4.50
2022-11-25T18:35:20.178Z,5.57
2022-11-25T18:45:27.115Z,4.30
2022-11-25T18:55:30.236Z,4.23
2022-11-25T19:05:34.997Z,4.00
2022-11-25T19:15:38.094Z,4.90
2022-11-25T19:25:42.539Z,4.80
2022-11-25T19:35:45.694Z,4.57
2022-11-25T19:45:50.538Z,4.40
2022-11-25T19:55:53.769Z,5.47
2022-11-25T20:05:58.387Z,6.10
2022-11-25T20:16:01.637Z,5.60
2022-11-25T20:26:06.155Z,4.23
2022-11-25T20:36:14.491Z,4.27
2022-11-25T20:46:21.448Z,4.53
2022-11-25T20:56:26.589Z,7.80
2022-11-25T21:06:37.823Z,5.20
2022-11-25T21:16:43.757Z,5.30
2022-11-25T21:26:48.210Z,5.07
2022-11-25T21:36:53.624Z,5.00
2022-11-25T21:46:58.335Z,5.13
2022-11-25T21:57:01.399Z,4.70
2022-11-25T22:07:05.771Z,4.80
2022-11-25T22:17:15.420Z,5.97
2022-11-25T22:27:22.792Z,4.20
2022-11-25T22:37:26.140Z,4.40
2022-11-25T22:47:34.353Z,4.67
2022-11-25T22:57:37.399Z,5.60
2022-11-25T23:07:41.925Z,6.43
2022-11-25T23:17:49.674Z,6.17
2022-11-25T23:27:54.164Z,8.00
2022-11-25T23:37:58.712Z,6.40
2022-11-25T23:48:04.531Z,6.30
2022-11-25T23:58:15.814Z,5.17
